Knossos Palace — SYQO — position and weather

sailwx.info

Track history (hours):
 
Tides and Currents Weather Stations Pressure Air Temp Water Temp Dewpoint Dewpoint Depression Visibility Wind Speed Wind Dir Waves Ship Positions

Knossos Palace

Last reported at 2014-Aug-22 19:34 UTC. Time now 2014-Aug-22 19:46 UTC.
Position N 37°49' E 023°36'.

Length 214 m; beam 26.4 m; draft 7.3 m.

Type: Passenger vessel. MMSI: 237641000.

Date/timePositionNaut miles runAvg speedWind from/ knotsBaromVisibWave heightAir tempDewpointWater temp
2014-Aug-22 19:34N 37°49' E 023°36'8 7.9
2014-Aug-22 18:34N 37°57' E 023°38'0 0.0
2014-Aug-22 17:33N 37°57' E 023°38'0 0.0
2014-Aug-22 16:33N 37°57' E 023°38'0 0.1
2014-Aug-22 15:33N 37°56' E 023°38'1919.1
2014-Aug-22 14:34N 37°39' E 023°47'2423.4
2014-Aug-22 13:33N 37°17' E 023°57'2424.2
2014-Aug-22 12:34N 36°54' E 024°07'2424.3
2014-Aug-22 11:34N 36°32' E 024°20'2423.9
2014-Aug-22 10:34N 36°11' E 024°35'2323.5
2014-Aug-22 09:34N 35°51' E 024°49'2424.0
2014-Aug-22 08:34N 35°30' E 025°04'1010.1
2014-Aug-22 07:33N 35°21' E 025°09'0 0.0
2014-Aug-22 06:33N 35°21' E 025°09'0 0.0
2014-Aug-22 05:33N 35°21' E 025°09'0 0.0
2014-Aug-22 04:32N 35°21' E 025°09'3 2.7
2014-Aug-22 03:28N 35°23' E 025°08'1819.9
2014-Aug-22 02:33N 35°39' E 024°57'2020.2
2014-Aug-22 01:33N 35°56' E 024°45'2121.2
2014-Aug-22 00:33N 36°15' E 024°31'2020.7
2014-Aug-21 23:33N 36°33' E 024°19'2120.5
2014-Aug-21 22:33N 36°51' E 024°07'2120.7
2014-Aug-21 21:32N 37°11' E 023°57'2320.9
2014-Aug-21 20:26N 37°32' E 023°46'1820.5
2014-Aug-21 19:33N 37°49' E 023°38'8 8.1
2014-Aug-21 18:33N 37°57' E 023°38'0 0.0
2014-Aug-21 17:33N 37°57' E 023°38'0 0.0
2014-Aug-21 16:33N 37°57' E 023°38'0 0.0
2014-Aug-21 15:33N 37°57' E 023°38'0 0.0
2014-Aug-21 14:33N 37°57' E 023°38'0 0.0
2014-Aug-21 13:33N 37°57' E 023°38'0 0.0
2014-Aug-21 12:33N 37°57' E 023°38'0 0.0
2014-Aug-21 11:33N 37°57' E 023°38'0 0.0
2014-Aug-21 10:33N 37°57' E 023°38'0 0.0
2014-Aug-21 09:33N 37°57' E 023°38'0 0.0
2014-Aug-21 08:33N 37°57' E 023°38'0 0.0
2014-Aug-21 07:33N 37°57' E 023°38'0 0.0
2014-Aug-21 06:33N 37°57' E 023°38'0 0.0
2014-Aug-21 05:33N 37°57' E 023°38'0 0.0
2014-Aug-21 04:33N 37°57' E 023°38'0 0.0
2014-Aug-21 03:33N 37°57' E 023°38'1514.7
2014-Aug-21 02:33N 37°43' E 023°44'2721.3
2014-Aug-21 01:17N 37°17' E 023°57'1621.6
2014-Aug-21 00:31N 37°02' E 024°04'2221.7
2014-Aug-20 23:31N 36°42' E 024°14'2121.6
2014-Aug-20 22:33N 36°24' E 024°26'2121.0
2014-Aug-20 21:33N 36°05' E 024°39'2120.6
2014-Aug-20 20:33N 35°47' E 024°51'2121.2
2014-Aug-20 19:33N 35°29' E 025°04'9 8.8
2014-Aug-20 18:32N 35°21' E 025°09'21 5.3
2014-Aug-20 14:33N 35°39' E 024°57'2423.9
2014-Aug-20 13:33N 36°00' E 024°42'2423.7
2014-Aug-20 12:34N 36°20' E 024°27'2423.6
2014-Aug-20 11:32N 36°42' E 024°13'2323.5
2014-Aug-20 10:33N 37°03' E 024°01'3324.1
2014-Aug-20 09:12N 37°33' E 023°46'1623.9
2014-Aug-20 08:33N 37°47' E 023°38'9 9.4
2014-Aug-20 07:33N 37°57' E 023°38'0 0.0
2014-Aug-20 06:31N 37°57' E 023°38'0 0.0
2014-Aug-20 05:31N 37°57' E 023°38'0 0.0
2014-Aug-20 04:31N 37°57' E 023°38'1 1.3
2014-Aug-20 03:33N 37°56' E 023°37'1919.3
2014-Aug-20 02:33N 37°38' E 023°47'4120.4
2014-Aug-20 00:33N 37°00' E 024°05'2120.8
2014-Aug-19 23:33N 36°41' E 024°14'2121.3
2014-Aug-19 22:33N 36°22' E 024°26'2120.9
2014-Aug-19 21:33N 36°04' E 024°39'2120.3
2014-Aug-19 20:31N 35°46' E 024°52'0 0.0
2014-Aug-19 02:24N 35°46' E 024°52'1821.2
2014-Aug-19 01:34N 36°01' E 024°41'1817.6
2014-Aug-19 00:33N 36°16' E 024°30'2020.3
2014-Aug-18 23:33N 36°34' E 024°18'2020.1
2014-Aug-18 22:33N 36°52' E 024°07'4520.4
2014-Aug-18 20:22N 37°33' E 023°46'1720.5
2014-Aug-18 19:33N 37°49' E 023°38'8 8.1
2014-Aug-18 18:33N 37°57' E 023°38'0 0.0
2014-Aug-18 17:33N 37°57' E 023°38'0 0.0
2014-Aug-18 16:33N 37°57' E 023°38'0 0.0
2014-Aug-18 15:33N 37°57' E 023°38'0 0.0
2014-Aug-18 14:33N 37°57' E 023°38'0 0.0
2014-Aug-18 13:33N 37°57' E 023°38'0 0.0
2014-Aug-18 12:33N 37°57' E 023°38'0 0.0
2014-Aug-18 11:33N 37°57' E 023°38'0 0.0
2014-Aug-18 10:33N 37°57' E 023°38'0 0.0
2014-Aug-18 09:33N 37°57' E 023°38'0 0.0
2014-Aug-18 08:33N 37°57' E 023°38'0 0.0
2014-Aug-18 07:33N 37°57' E 023°38'0 0.0
2014-Aug-18 06:33N 37°57' E 023°38'0 0.0
2014-Aug-18 05:33N 37°57' E 023°38'0 0.0
2014-Aug-18 04:30N 37°57' E 023°38'2 2.3
2014-Aug-18 03:33N 37°54' E 023°38'17018.9
2014-Aug-17 18:33N 35°21' E 025°09'0 0.0
2014-Aug-17 17:12N 35°21' E 025°09'0 0.0
2014-Aug-17 16:23N 35°21' E 025°09'1 1.6
2014-Aug-17 15:31N 35°22' E 025°09'2223.1
2014-Aug-17 14:34N 35°41' E 024°56'2423.9
2014-Aug-17 13:33N 36°02' E 024°41'2423.6
2014-Aug-17 12:33N 36°22' E 024°26'2423.6
2014-Aug-17 11:34N 36°43' E 024°13'2222.4
2014-Aug-17 10:33N 37°04' E 024°01'2322.8
2014-Aug-17 09:34N 37°25' E 023°50'2424.0
2014-Aug-17 08:33N 37°47' E 023°38'10 9.7
2014-Aug-17 07:33N 37°57' E 023°38'0 0.0
2014-Aug-17 06:33N 37°57' E 023°38'0 0.0
2014-Aug-17 05:33N 37°57' E 023°38'0 0.0
2014-Aug-17 04:33N 37°57' E 023°38'3 3.3
2014-Aug-17 03:33N 37°53' E 023°39'2019.9
2014-Aug-17 02:33N 37°35' E 023°48'2320.4
2014-Aug-17 01:26N 37°14' E 023°58'1820.5
2014-Aug-17 00:33N 36°57' E 024°06'2121.0
2014-Aug-16 23:33N 36°37' E 024°16'2120.8
2014-Aug-16 22:33N 36°19' E 024°29'2020.2
2014-Aug-16 21:33N 36°01' E 024°41'1919.2
2014-Aug-16 20:33N 35°45' E 024°53'2019.5
2014-Aug-16 19:33N 35°28' E 025°05'8 7.8
2014-Aug-16 18:32N 35°21' E 025°09'6711.2
2014-Aug-16 12:33N 36°19' E 024°28'2624.1
2014-Aug-16 11:30N 36°42' E 024°13'2324.2
2014-Aug-16 10:33N 37°03' E 024°02'2424.1
2014-Aug-16 09:33N 37°25' E 023°50'2424.3
2014-Aug-16 08:34N 37°47' E 023°38'9 9.5
2014-Aug-16 07:33N 37°57' E 023°38'0 0.0
2014-Aug-16 06:31N 37°57' E 023°38'0 0.0
2014-Aug-16 05:31N 37°57' E 023°38'0 0.0
2014-Aug-16 04:31N 37°57' E 023°38'2 2.3
2014-Aug-16 03:33N 37°54' E 023°38'1919.0
2014-Aug-16 02:33N 37°37' E 023°48'2020.2
2014-Aug-16 01:33N 37°18' E 023°56'2120.7
2014-Aug-16 00:33N 36°59' E 024°05'2120.9
2014-Aug-15 23:32N 36°39' E 024°15'2020.5
2014-Aug-15 22:33N 36°21' E 024°28'2020.2
2014-Aug-15 21:33N 36°04' E 024°40'2020.0
2014-Aug-15 20:33N 35°46' E 024°52'2120.3
2014-Aug-15 19:32N 35°28' E 025°05'8 8.1
2014-Aug-15 18:30N 35°21' E 025°09'0 0.0
2014-Aug-15 17:03N 35°21' E 025°09'0 0.0
2014-Aug-15 16:21N 35°21' E 025°09'0 0.0
2014-Aug-15 15:33N 35°21' E 025°09'0 0.0
2014-Aug-15 14:33N 35°21' E 025°09'0 0.0
2014-Aug-15 13:33N 35°21' E 025°09'0 0.0
2014-Aug-15 12:27N 35°21' E 025°09'0 0.0
2014-Aug-15 11:33N 35°21' E 025°09'0 0.0
2014-Aug-15 10:33N 35°21' E 025°09'0 0.0
2014-Aug-15 09:21N 35°21' E 025°09'0 0.0
2014-Aug-15 08:33N 35°21' E 025°09'0 0.0
2014-Aug-15 07:27N 35°21' E 025°09'0 0.0
2014-Aug-15 06:27N 35°21' E 025°09'0 0.0
2014-Aug-15 05:33N 35°21' E 025°09'0 0.0
2014-Aug-15 04:33N 35°21' E 025°09'1 1.4
2014-Aug-15 03:31N 35°22' E 025°09'1919.7
2014-Aug-15 02:34N 35°38' E 024°58'2120.7
2014-Aug-15 01:34N 35°56' E 024°45'2120.6
2014-Aug-15 00:34N 36°14' E 024°33'2120.7
2014-Aug-14 23:34N 36°32' E 024°19'2120.7
2014-Aug-14 22:34N 36°51' E 024°08'2221.2
2014-Aug-14 21:32N 37°10' E 023°58'2121.0
2014-Aug-14 20:33N 37°30' E 023°48'2120.7
2014-Aug-14 19:34N 37°49' E 023°38'8 7.9
2014-Aug-14 18:33N 37°57' E 023°38'0 0.0
2014-Aug-14 17:34N 37°57' E 023°38'0 0.0
2014-Aug-14 16:33N 37°57' E 023°38'0 0.0
2014-Aug-14 15:33N 37°57' E 023°38'0 0.0
2014-Aug-14 14:33N 37°57' E 023°38'0 0.0
2014-Aug-14 13:33N 37°57' E 023°38'0 0.0
2014-Aug-14 12:33N 37°57' E 023°38'0 0.0
2014-Aug-14 11:33N 37°57' E 023°38'0 0.0
2014-Aug-14 10:34N 37°57' E 023°38'0 0.0
2014-Aug-14 09:33N 37°57' E 023°38'0 0.0
2014-Aug-14 08:33N 37°57' E 023°38'0 0.0
2014-Aug-14 07:33N 37°57' E 023°38'0 0.0
2014-Aug-14 06:33N 37°57' E 023°38'0 0.0
2014-Aug-14 05:34N 37°57' E 023°38'0 0.0
2014-Aug-14 04:34N 37°57' E 023°38'1 1.5
2014-Aug-14 03:34N 37°55' E 023°37'2120.6
2014-Aug-14 02:33N 37°36' E 023°48'2620.7
2014-Aug-14 01:17N 37°12' E 023°59'1520.4
2014-Aug-14 00:34N 36°58' E 024°05'2120.7
2014-Aug-13 23:34N 36°39' E 024°15'2120.7
2014-Aug-13 22:34N 36°20' E 024°27'2120.9
2014-Aug-13 21:34N 36°02' E 024°40'2120.6
2014-Aug-13 20:34N 35°45' E 024°53'2120.7
2014-Aug-13 19:33N 35°27' E 025°06'6 6.2
2014-Aug-13 18:33N 35°21' E 025°09'0 0.0
2014-Aug-13 17:33N 35°21' E 025°09'0 0.0
2014-Aug-13 16:33N 35°21' E 025°09'0 0.1
2014-Aug-13 15:33N 35°21' E 025°09'2020.4
2014-Aug-13 14:33N 35°39' E 024°57'2423.7
2014-Aug-13 13:33N 35°59' E 024°42'2423.9
2014-Aug-13 12:33N 36°20' E 024°27'2424.1
2014-Aug-13 11:33N 36°41' E 024°13'2323.8
2014-Aug-13 10:33N 37°03' E 024°02'2423.9
2014-Aug-13 09:33N 37°25' E 023°50'2424.1
2014-Aug-13 08:34N 37°47' E 023°39'9 9.3
2014-Aug-13 07:33N 37°57' E 023°38'0 0.0
2014-Aug-13 06:33N 37°57' E 023°38'0 0.0
2014-Aug-13 05:33N 37°57' E 023°38'0 0.0
2014-Aug-13 04:33N 37°57' E 023°38'1 0.8
2014-Aug-13 03:33N 37°56' E 023°37'1919.0
2014-Aug-13 02:33N 37°38' E 023°47'2220.8
2014-Aug-13 01:29N 37°18' E 023°56'1920.5
2014-Aug-13 00:33N 36°60' E 024°05'2320.7
2014-Aug-12 23:28N 36°39' E 024°16'1920.9
2014-Aug-12 22:34N 36°22' E 024°26'2120.7
2014-Aug-12 21:34N 36°04' E 024°39'2020.4
2014-Aug-12 20:34N 35°47' E 024°52'  
Track history (hours):
 
Tides and Currents Weather Stations Pressure Air Temp Water Temp Dewpoint Dewpoint Depression Visibility Wind Speed Wind Dir Waves Ship Positions

Knossos Palace

Last reported at 2014-Aug-22 19:34 UTC. Time now 2014-Aug-22 19:46 UTC.
Position N 37°49' E 023°36'.

Length 214 m; beam 26.4 m; draft 7.3 m.

Type: Passenger vessel. MMSI: 237641000.

Date/timePositionNaut miles runAvg speedWind from/ knotsBaromVisibWave heightAir tempDewpointWater temp
2014-Aug-22 19:34N 37°49' E 023°36'8 7.9
2014-Aug-22 18:34N 37°57' E 023°38'0 0.0
2014-Aug-22 17:33N 37°57' E 023°38'0 0.0
2014-Aug-22 16:33N 37°57' E 023°38'0 0.1
2014-Aug-22 15:33N 37°56' E 023°38'1919.1
2014-Aug-22 14:34N 37°39' E 023°47'2423.4
2014-Aug-22 13:33N 37°17' E 023°57'2424.2
2014-Aug-22 12:34N 36°54' E 024°07'2424.3
2014-Aug-22 11:34N 36°32' E 024°20'2423.9
2014-Aug-22 10:34N 36°11' E 024°35'2323.5
2014-Aug-22 09:34N 35°51' E 024°49'2424.0
2014-Aug-22 08:34N 35°30' E 025°04'1010.1
2014-Aug-22 07:33N 35°21' E 025°09'0 0.0
2014-Aug-22 06:33N 35°21' E 025°09'0 0.0
2014-Aug-22 05:33N 35°21' E 025°09'0 0.0
2014-Aug-22 04:32N 35°21' E 025°09'3 2.7
2014-Aug-22 03:28N 35°23' E 025°08'1819.9
2014-Aug-22 02:33N 35°39' E 024°57'2020.2
2014-Aug-22 01:33N 35°56' E 024°45'2121.2
2014-Aug-22 00:33N 36°15' E 024°31'2020.7
2014-Aug-21 23:33N 36°33' E 024°19'2120.5
2014-Aug-21 22:33N 36°51' E 024°07'2120.7
2014-Aug-21 21:32N 37°11' E 023°57'2320.9
2014-Aug-21 20:26N 37°32' E 023°46'1820.5
2014-Aug-21 19:33N 37°49' E 023°38'8 8.1
2014-Aug-21 18:33N 37°57' E 023°38'0 0.0
2014-Aug-21 17:33N 37°57' E 023°38'0 0.0
2014-Aug-21 16:33N 37°57' E 023°38'0 0.0
2014-Aug-21 15:33N 37°57' E 023°38'0 0.0
2014-Aug-21 14:33N 37°57' E 023°38'0 0.0
2014-Aug-21 13:33N 37°57' E 023°38'0 0.0
2014-Aug-21 12:33N 37°57' E 023°38'0 0.0
2014-Aug-21 11:33N 37°57' E 023°38'0 0.0
2014-Aug-21 10:33N 37°57' E 023°38'0 0.0
2014-Aug-21 09:33N 37°57' E 023°38'0 0.0
2014-Aug-21 08:33N 37°57' E 023°38'0 0.0
2014-Aug-21 07:33N 37°57' E 023°38'0 0.0
2014-Aug-21 06:33N 37°57' E 023°38'0 0.0
2014-Aug-21 05:33N 37°57' E 023°38'0 0.0
2014-Aug-21 04:33N 37°57' E 023°38'0 0.0
2014-Aug-21 03:33N 37°57' E 023°38'1514.7
2014-Aug-21 02:33N 37°43' E 023°44'2721.3
2014-Aug-21 01:17N 37°17' E 023°57'1621.6
2014-Aug-21 00:31N 37°02' E 024°04'2221.7
2014-Aug-20 23:31N 36°42' E 024°14'2121.6
2014-Aug-20 22:33N 36°24' E 024°26'2121.0
2014-Aug-20 21:33N 36°05' E 024°39'2120.6
2014-Aug-20 20:33N 35°47' E 024°51'2121.2
2014-Aug-20 19:33N 35°29' E 025°04'9 8.8
2014-Aug-20 18:32N 35°21' E 025°09'21 5.3
2014-Aug-20 14:33N 35°39' E 024°57'2423.9
2014-Aug-20 13:33N 36°00' E 024°42'2423.7
2014-Aug-20 12:34N 36°20' E 024°27'2423.6
2014-Aug-20 11:32N 36°42' E 024°13'2323.5
2014-Aug-20 10:33N 37°03' E 024°01'3324.1
2014-Aug-20 09:12N 37°33' E 023°46'1623.9
2014-Aug-20 08:33N 37°47' E 023°38'9 9.4
2014-Aug-20 07:33N 37°57' E 023°38'0 0.0
2014-Aug-20 06:31N 37°57' E 023°38'0 0.0
2014-Aug-20 05:31N 37°57' E 023°38'0 0.0
2014-Aug-20 04:31N 37°57' E 023°38'1 1.3
2014-Aug-20 03:33N 37°56' E 023°37'1919.3
2014-Aug-20 02:33N 37°38' E 023°47'4120.4
2014-Aug-20 00:33N 37°00' E 024°05'2120.8
2014-Aug-19 23:33N 36°41' E 024°14'2121.3
2014-Aug-19 22:33N 36°22' E 024°26'2120.9
2014-Aug-19 21:33N 36°04' E 024°39'2120.3
2014-Aug-19 20:31N 35°46' E 024°52'0 0.0
2014-Aug-19 02:24N 35°46' E 024°52'1821.2
2014-Aug-19 01:34N 36°01' E 024°41'1817.6
2014-Aug-19 00:33N 36°16' E 024°30'2020.3
2014-Aug-18 23:33N 36°34' E 024°18'2020.1
2014-Aug-18 22:33N 36°52' E 024°07'4520.4
2014-Aug-18 20:22N 37°33' E 023°46'1720.5
2014-Aug-18 19:33N 37°49' E 023°38'8 8.1
2014-Aug-18 18:33N 37°57' E 023°38'0 0.0
2014-Aug-18 17:33N 37°57' E 023°38'0 0.0
2014-Aug-18 16:33N 37°57' E 023°38'0 0.0
2014-Aug-18 15:33N 37°57' E 023°38'0 0.0
2014-Aug-18 14:33N 37°57' E 023°38'0 0.0
2014-Aug-18 13:33N 37°57' E 023°38'0 0.0
2014-Aug-18 12:33N 37°57' E 023°38'0 0.0
2014-Aug-18 11:33N 37°57' E 023°38'0 0.0
2014-Aug-18 10:33N 37°57' E 023°38'0 0.0
2014-Aug-18 09:33N 37°57' E 023°38'0 0.0
2014-Aug-18 08:33N 37°57' E 023°38'0 0.0
2014-Aug-18 07:33N 37°57' E 023°38'0 0.0
2014-Aug-18 06:33N 37°57' E 023°38'0 0.0
2014-Aug-18 05:33N 37°57' E 023°38'0 0.0
2014-Aug-18 04:30N 37°57' E 023°38'2 2.3
2014-Aug-18 03:33N 37°54' E 023°38'17018.9
2014-Aug-17 18:33N 35°21' E 025°09'0 0.0
2014-Aug-17 17:12N 35°21' E 025°09'0 0.0
2014-Aug-17 16:23N 35°21' E 025°09'1 1.6
2014-Aug-17 15:31N 35°22' E 025°09'2223.1
2014-Aug-17 14:34N 35°41' E 024°56'2423.9
2014-Aug-17 13:33N 36°02' E 024°41'2423.6
2014-Aug-17 12:33N 36°22' E 024°26'2423.6
2014-Aug-17 11:34N 36°43' E 024°13'2222.4
2014-Aug-17 10:33N 37°04' E 024°01'2322.8
2014-Aug-17 09:34N 37°25' E 023°50'2424.0
2014-Aug-17 08:33N 37°47' E 023°38'10 9.7
2014-Aug-17 07:33N 37°57' E 023°38'0 0.0
2014-Aug-17 06:33N 37°57' E 023°38'0 0.0
2014-Aug-17 05:33N 37°57' E 023°38'0 0.0
2014-Aug-17 04:33N 37°57' E 023°38'3 3.3
2014-Aug-17 03:33N 37°53' E 023°39'2019.9
2014-Aug-17 02:33N 37°35' E 023°48'2320.4
2014-Aug-17 01:26N 37°14' E 023°58'1820.5
2014-Aug-17 00:33N 36°57' E 024°06'2121.0
2014-Aug-16 23:33N 36°37' E 024°16'2120.8
2014-Aug-16 22:33N 36°19' E 024°29'2020.2
2014-Aug-16 21:33N 36°01' E 024°41'1919.2
2014-Aug-16 20:33N 35°45' E 024°53'2019.5
2014-Aug-16 19:33N 35°28' E 025°05'8 7.8
2014-Aug-16 18:32N 35°21' E 025°09'6711.2
2014-Aug-16 12:33N 36°19' E 024°28'2624.1
2014-Aug-16 11:30N 36°42' E 024°13'2324.2
2014-Aug-16 10:33N 37°03' E 024°02'2424.1
2014-Aug-16 09:33N 37°25' E 023°50'2424.3
2014-Aug-16 08:34N 37°47' E 023°38'9 9.5
2014-Aug-16 07:33N 37°57' E 023°38'0 0.0
2014-Aug-16 06:31N 37°57' E 023°38'0 0.0
2014-Aug-16 05:31N 37°57' E 023°38'0 0.0
2014-Aug-16 04:31N 37°57' E 023°38'2 2.3
2014-Aug-16 03:33N 37°54' E 023°38'1919.0
2014-Aug-16 02:33N 37°37' E 023°48'2020.2
2014-Aug-16 01:33N 37°18' E 023°56'2120.7
2014-Aug-16 00:33N 36°59' E 024°05'2120.9
2014-Aug-15 23:32N 36°39' E 024°15'2020.5
2014-Aug-15 22:33N 36°21' E 024°28'2020.2
2014-Aug-15 21:33N 36°04' E 024°40'2020.0
2014-Aug-15 20:33N 35°46' E 024°52'2120.3
2014-Aug-15 19:32N 35°28' E 025°05'8 8.1
2014-Aug-15 18:30N 35°21' E 025°09'0 0.0
2014-Aug-15 17:03N 35°21' E 025°09'0 0.0
2014-Aug-15 16:21N 35°21' E 025°09'0 0.0
2014-Aug-15 15:33N 35°21' E 025°09'0 0.0
2014-Aug-15 14:33N 35°21' E 025°09'0 0.0
2014-Aug-15 13:33N 35°21' E 025°09'0 0.0
2014-Aug-15 12:27N 35°21' E 025°09'0 0.0
2014-Aug-15 11:33N 35°21' E 025°09'0 0.0
2014-Aug-15 10:33N 35°21' E 025°09'0 0.0
2014-Aug-15 09:21N 35°21' E 025°09'0 0.0
2014-Aug-15 08:33N 35°21' E 025°09'0 0.0
2014-Aug-15 07:27N 35°21' E 025°09'0 0.0
2014-Aug-15 06:27N 35°21' E 025°09'0 0.0
2014-Aug-15 05:33N 35°21' E 025°09'0 0.0
2014-Aug-15 04:33N 35°21' E 025°09'1 1.4
2014-Aug-15 03:31N 35°22' E 025°09'1919.7
2014-Aug-15 02:34N 35°38' E 024°58'2120.7
2014-Aug-15 01:34N 35°56' E 024°45'2120.6
2014-Aug-15 00:34N 36°14' E 024°33'2120.7
2014-Aug-14 23:34N 36°32' E 024°19'2120.7
2014-Aug-14 22:34N 36°51' E 024°08'2221.2
2014-Aug-14 21:32N 37°10' E 023°58'2121.0
2014-Aug-14 20:33N 37°30' E 023°48'2120.7
2014-Aug-14 19:34N 37°49' E 023°38'8 7.9
2014-Aug-14 18:33N 37°57' E 023°38'0 0.0
2014-Aug-14 17:34N 37°57' E 023°38'0 0.0
2014-Aug-14 16:33N 37°57' E 023°38'0 0.0
2014-Aug-14 15:33N 37°57' E 023°38'0 0.0
2014-Aug-14 14:33N 37°57' E 023°38'0 0.0
2014-Aug-14 13:33N 37°57' E 023°38'0 0.0
2014-Aug-14 12:33N 37°57' E 023°38'0 0.0
2014-Aug-14 11:33N 37°57' E 023°38'0 0.0
2014-Aug-14 10:34N 37°57' E 023°38'0 0.0
2014-Aug-14 09:33N 37°57' E 023°38'0 0.0
2014-Aug-14 08:33N 37°57' E 023°38'0 0.0
2014-Aug-14 07:33N 37°57' E 023°38'0 0.0
2014-Aug-14 06:33N 37°57' E 023°38'0 0.0
2014-Aug-14 05:34N 37°57' E 023°38'0 0.0
2014-Aug-14 04:34N 37°57' E 023°38'1 1.5
2014-Aug-14 03:34N 37°55' E 023°37'2120.6
2014-Aug-14 02:33N 37°36' E 023°48'2620.7
2014-Aug-14 01:17N 37°12' E 023°59'1520.4
2014-Aug-14 00:34N 36°58' E 024°05'2120.7
2014-Aug-13 23:34N 36°39' E 024°15'2120.7
2014-Aug-13 22:34N 36°20' E 024°27'2120.9
2014-Aug-13 21:34N 36°02' E 024°40'2120.6
2014-Aug-13 20:34N 35°45' E 024°53'2120.7
2014-Aug-13 19:33N 35°27' E 025°06'6 6.2
2014-Aug-13 18:33N 35°21' E 025°09'0 0.0
2014-Aug-13 17:33N 35°21' E 025°09'0 0.0
2014-Aug-13 16:33N 35°21' E 025°09'0 0.1
2014-Aug-13 15:33N 35°21' E 025°09'2020.4
2014-Aug-13 14:33N 35°39' E 024°57'2423.7
2014-Aug-13 13:33N 35°59' E 024°42'2423.9
2014-Aug-13 12:33N 36°20' E 024°27'2424.1
2014-Aug-13 11:33N 36°41' E 024°13'2323.8
2014-Aug-13 10:33N 37°03' E 024°02'2423.9
2014-Aug-13 09:33N 37°25' E 023°50'2424.1
2014-Aug-13 08:34N 37°47' E 023°39'9 9.3
2014-Aug-13 07:33N 37°57' E 023°38'0 0.0
2014-Aug-13 06:33N 37°57' E 023°38'0 0.0
2014-Aug-13 05:33N 37°57' E 023°38'0 0.0
2014-Aug-13 04:33N 37°57' E 023°38'1 0.8
2014-Aug-13 03:33N 37°56' E 023°37'1919.0
2014-Aug-13 02:33N 37°38' E 023°47'2220.8
2014-Aug-13 01:29N 37°18' E 023°56'1920.5
2014-Aug-13 00:33N 36°60' E 024°05'2320.7
2014-Aug-12 23:28N 36°39' E 024°16'1920.9
2014-Aug-12 22:34N 36°22' E 024°26'2120.7
2014-Aug-12 21:34N 36°04' E 024°39'2020.4
2014-Aug-12 20:34N 35°47' E 024°52'  

Dump ship's entire track history